Main page
METAR-TAF:

METAR-TAF

Airports :

Sir Seewoosagur Ramgoolam International Airport

Mauritius, Mauritius

latitude: 20-26S, longitude: 057-40E, elevation: 55 m

Current weather observation

The report was made 1 hour and 11 minutes ago, at 23:00 UTC
Wind 4 kt from the East/Southeast
Temperature 21°C
Humidity 69%
Pressure 1022 hPa
Visibility 10 km or more
Broken clouds at a height of 1600 ft
showers in vicinity,

METAR: FIMP 142300Z 12004KT 9999 VCSH BKN016 21/15 Q1022

Time: 04:11 (00:11 UTC)

Forecast

The report was made 41 minutes ago, at 23:30 UTC
Forecast valid from 15 at 00 UTC to 16 at 06 UTC
Wind 10 kt from the East/Southeast
Visibility 10 km or more
Scattered clouds at a height of 1700 ft
Probability 30% :
Temporary
from 15 at 00 UTC to 15 at 06 UTC
Visibility: 7000 m
Few clouds at a height of 1000 ft
Broken clouds at a height of 1500 ft
light rain showers,

TAF: FIMP 142330Z 1500/1606 12010KT 9999 SCT017 PROB30 TEMPO 1500/1506 7000 -SHRA FEW010 BKN015

Weather observations and forecasts of more than 4000 airports (METAR and TAF reports).

The available stations are represented by yellow and red dots on the map.

Hover mouse over dot to see the name of the station.

Then click to see weather observations and forecasts.

To change the map : click on the green buttons with a black cross to zoom in, on the green button with a dash to zoom out, or on the green arrows for adjacent maps.


METAR-TAF: